Terminal Aerodrome Forecast
Issued by NWS Upton, NY

Home | Current Version | Previous Version | Text Only | Print | Product List | Glossary On
Versions: 1 2 3 4 5 6 7 8 9 10 11 12 13 14 15 16 17 18 19 20 21 22 23 24 25 26 27 28 29 30 31 32 33 34 35 36 37 38 39 40 41 42 43
762
FTUS41 KOKX 200846 AAA
TAFEWR
TAF AMD
KEWR 200846Z 2009/2112 06005KT P6SM BKN025
     FM201500 09004KT P6SM SCT020 BKN200
     FM201900 14006KT 6SM -RA BKN020 BKN200
     FM202100 13006KT 4SM -RA BR OVC015
     FM210100 13008KT 1 1/2SM -RA BR OVC010
     FM210400 18003KT 1 1/2SM BR OVC008=

USA.gov is the U.S. government's official web portal to all federal, state and local government web resources and services.